createdAt,value
2018-06-08T00:00:16.254Z,18.95
2018-06-08T00:02:45.945Z,18.83
2018-06-08T00:05:15.536Z,18.79
2018-06-08T00:07:44.986Z,18.83
2018-06-08T00:10:14.117Z,18.80
2018-06-08T00:12:44.237Z,18.80
2018-06-08T00:15:13.643Z,18.56
2018-06-08T00:17:43.169Z,18.59
2018-06-08T00:20:12.773Z,18.63
2018-06-08T00:22:42.876Z,18.60
2018-06-08T00:25:13.035Z,18.57
2018-06-08T00:27:42.530Z,18.56
2018-06-08T00:30:12.010Z,18.50
2018-06-08T00:32:41.703Z,18.50
2018-06-08T00:35:11.261Z,18.37
2018-06-08T00:37:40.767Z,18.32
2018-06-08T00:40:10.852Z,18.27
2018-06-08T00:42:40.601Z,18.21
2018-06-08T00:45:10.086Z,18.14
2018-06-08T00:47:39.623Z,18.18
2018-06-08T00:50:09.216Z,18.06
2018-06-08T00:52:38.951Z,18.02
2018-06-08T00:55:08.561Z,18.04
2018-06-08T00:57:38.013Z,17.96
2018-06-08T01:00:07.913Z,17.91
2018-06-08T01:02:37.458Z,17.84
2018-06-08T01:05:06.966Z,17.79
2018-06-08T01:07:36.623Z,17.78
2018-06-08T01:10:05.909Z,17.69
2018-06-08T01:12:35.359Z,17.67
2018-06-08T01:15:05.123Z,17.55
2018-06-08T01:17:34.750Z,17.51
2018-06-08T01:20:04.044Z,17.52
2018-06-08T01:22:33.926Z,17.56
2018-06-08T01:25:03.519Z,17.62
2018-06-08T01:27:32.947Z,17.63
2018-06-08T01:30:02.553Z,17.69
2018-06-08T01:32:32.098Z,17.67
2018-06-08T01:35:01.377Z,17.61
2018-06-08T01:37:31.495Z,17.57
2018-06-08T01:40:00.974Z,17.50
2018-06-08T01:42:30.409Z,17.49
2018-06-08T01:45:00.951Z,17.47
2018-06-08T01:47:30.400Z,17.44
2018-06-08T01:50:00.542Z,17.41
2018-06-08T01:52:30.035Z,17.28
2018-06-08T01:54:59.628Z,17.26
2018-06-08T01:57:29.136Z,17.25
2018-06-08T01:59:58.753Z,17.32
2018-06-08T02:02:31.469Z,17.19
2018-06-08T02:05:01.195Z,17.14
2018-06-08T02:07:30.867Z,17.10
2018-06-08T02:10:00.477Z,17.11
2018-06-08T02:12:29.954Z,17.06
2018-06-08T02:14:59.473Z,17.08
2018-06-08T02:17:28.985Z,16.93
2018-06-08T02:19:58.436Z,16.88
2018-06-08T02:22:27.981Z,16.89
2018-06-08T02:24:57.555Z,16.85
2018-06-08T02:27:27.041Z,16.68
2018-06-08T02:29:56.530Z,16.57
2018-06-08T02:32:26.381Z,16.65
2018-06-08T02:34:56.361Z,16.57
2018-06-08T02:37:26.110Z,16.41
2018-06-08T02:39:55.681Z,16.22
2018-06-08T02:42:25.111Z,16.09
2018-06-08T02:44:54.586Z,16.04
2018-06-08T02:47:24.082Z,16.12
2018-06-08T02:49:53.513Z,16.14
2018-06-08T02:52:23.070Z,16.20
2018-06-08T02:54:52.547Z,16.14
2018-06-08T02:57:21.996Z,16.08
2018-06-08T02:59:51.446Z,16.06
2018-06-08T03:02:20.933Z,16.08
2018-06-08T03:04:50.381Z,16.06
2018-06-08T03:07:20.192Z,16.08
2018-06-08T03:09:49.465Z,16.18
2018-06-08T03:12:18.987Z,16.15
2018-06-08T03:14:48.389Z,15.93
2018-06-08T03:17:17.914Z,15.98
2018-06-08T03:19:47.073Z,15.96
2018-06-08T03:22:16.631Z,15.97
2018-06-08T03:24:45.894Z,16.08
2018-06-08T03:27:15.369Z,16.09
2018-06-08T03:29:45.292Z,16.15
2018-06-08T03:32:14.822Z,16.18
2018-06-08T03:34:44.291Z,16.22
2018-06-08T03:37:13.832Z,16.28
2018-06-08T03:39:43.247Z,16.32
2018-06-08T03:42:12.674Z,16.36
2018-06-08T03:44:42.180Z,16.37
2018-06-08T03:47:11.962Z,16.39
2018-06-08T03:49:41.554Z,16.40
2018-06-08T03:52:10.942Z,16.44
2018-06-08T03:54:40.486Z,16.50
2018-06-08T03:57:10.792Z,16.52
2018-06-08T03:59:40.356Z,16.56
2018-06-08T04:02:10.554Z,16.59
2018-06-08T04:04:40.031Z,16.61
2018-06-08T04:07:09.562Z,16.60
2018-06-08T04:09:39.054Z,16.62
2018-06-08T04:12:08.535Z,16.56
2018-06-08T04:14:38.053Z,16.60
2018-06-08T04:17:07.702Z,16.59
2018-06-08T04:19:37.162Z,16.62
2018-06-08T04:22:08.169Z,16.72
2018-06-08T04:24:37.808Z,16.86
2018-06-08T04:27:07.286Z,16.95
2018-06-08T04:29:36.876Z,16.97
2018-06-08T04:32:06.736Z,16.94
2018-06-08T04:34:36.252Z,17.09
2018-06-08T04:37:05.770Z,16.95
2018-06-08T04:39:35.486Z,17.20
2018-06-08T04:42:05.066Z,17.49
2018-06-08T04:44:34.509Z,17.42
2018-06-08T04:47:04.032Z,17.41
2018-06-08T04:49:33.209Z,17.52
2018-06-08T04:52:02.599Z,17.71
2018-06-08T04:54:32.135Z,17.85
2018-06-08T04:57:01.713Z,17.94
2018-06-08T04:59:32.114Z,18.04
2018-06-08T05:02:01.828Z,18.09
2018-06-08T05:04:31.473Z,18.20
2018-06-08T05:07:01.146Z,18.25
2018-06-08T05:09:31.067Z,18.31
2018-06-08T05:12:00.572Z,18.44
2018-06-08T05:14:30.248Z,18.33
2018-06-08T05:16:59.415Z,18.21
2018-06-08T05:19:29.021Z,18.38
2018-06-08T05:21:58.467Z,18.39
2018-06-08T05:24:27.998Z,18.27
2018-06-08T05:26:57.554Z,18.47
2018-06-08T05:29:27.064Z,18.63
2018-06-08T05:31:56.747Z,18.79
2018-06-08T05:34:26.811Z,18.64
2018-06-08T05:36:55.989Z,18.82
2018-06-08T05:39:27.107Z,18.80
2018-06-08T05:41:57.632Z,18.79
2018-06-08T05:44:28.009Z,18.79
2018-06-08T05:46:57.996Z,18.94
2018-06-08T05:49:28.028Z,18.86
2018-06-08T05:51:57.522Z,18.96
2018-06-08T05:54:27.002Z,19.39
2018-06-08T05:56:56.504Z,19.48
2018-06-08T05:59:26.182Z,19.40
2018-06-08T06:01:56.333Z,19.62
2018-06-08T06:04:25.858Z,19.53
2018-06-08T06:06:55.405Z,19.56
2018-06-08T06:09:25.377Z,19.59
2018-06-08T06:11:55.015Z,19.75
2018-06-08T06:14:24.496Z,19.75
2018-06-08T06:16:54.084Z,19.79
2018-06-08T06:19:23.512Z,19.77
2018-06-08T06:21:53.034Z,19.86
2018-06-08T06:24:22.541Z,20.08
2018-06-08T06:26:52.025Z,20.23
2018-06-08T06:29:21.445Z,20.13
2018-06-08T06:31:50.973Z,20.31
2018-06-08T06:34:20.921Z,20.38
2018-06-08T06:36:51.059Z,20.45
2018-06-08T06:39:20.593Z,20.35
2018-06-08T06:41:50.054Z,20.59
2018-06-08T06:44:19.229Z,20.73
2018-06-08T06:46:48.662Z,20.68
2018-06-08T06:49:18.138Z,20.75
2018-06-08T06:51:47.561Z,20.89
2018-06-08T06:54:16.760Z,20.94
2018-06-08T06:56:46.933Z,20.89
2018-06-08T06:59:16.435Z,21.03
2018-06-08T07:01:46.116Z,21.17
2018-06-08T07:04:15.666Z,21.11
2018-06-08T07:06:45.586Z,21.10
2018-06-08T07:09:15.428Z,21.23
2018-06-08T07:11:45.012Z,21.25
2018-06-08T07:14:15.955Z,21.23
2018-06-08T07:16:52.736Z,21.52
2018-06-08T07:19:22.622Z,21.49
2018-06-08T07:21:57.145Z,21.84
2018-06-08T07:24:26.641Z,21.99
2018-06-08T07:26:56.341Z,22.17
2018-06-08T07:29:27.717Z,22.00
2018-06-08T07:31:57.865Z,22.07
2018-06-08T07:34:27.316Z,22.08
2018-06-08T07:36:57.643Z,22.00
2018-06-08T07:39:27.334Z,22.02
2018-06-08T07:41:56.793Z,22.21
2018-06-08T07:44:28.106Z,22.36
2018-06-08T07:46:57.860Z,22.44
2018-06-08T07:49:27.602Z,22.37
2018-06-08T07:51:57.716Z,22.43
2018-06-08T07:54:28.476Z,22.63
2018-06-08T07:57:02.478Z,22.82
2018-06-08T07:59:32.167Z,22.73
2018-06-08T08:02:06.493Z,22.78
2018-06-08T08:04:36.164Z,22.89
2018-06-08T08:07:06.310Z,23.09
2018-06-08T08:09:36.793Z,22.96
2018-06-08T08:12:07.684Z,23.17
2018-06-08T08:14:37.324Z,23.25
2018-06-08T08:17:07.936Z,23.29
2018-06-08T08:19:38.836Z,23.49
2018-06-08T08:22:09.979Z,23.45
2018-06-08T08:24:39.794Z,23.48
2018-06-08T08:27:10.231Z,23.58
2018-06-08T08:29:40.627Z,23.68
2018-06-08T08:32:10.301Z,23.86
2018-06-08T08:34:39.505Z,23.89
2018-06-08T08:37:08.778Z,23.96
2018-06-08T08:39:38.790Z,24.29
2018-06-08T08:42:09.517Z,24.16
2018-06-08T08:44:39.143Z,24.33
2018-06-08T08:47:10.549Z,24.35
2018-06-08T08:49:40.211Z,24.31
2018-06-08T08:52:11.227Z,24.47
2018-06-08T08:54:41.365Z,24.29
2018-06-08T08:57:10.922Z,24.18
2018-06-08T08:59:41.211Z,24.27
2018-06-08T09:02:10.672Z,24.27
2018-06-08T09:04:40.081Z,24.44
2018-06-08T09:07:09.581Z,24.70
2018-06-08T09:09:40.920Z,24.63
2018-06-08T09:12:10.423Z,24.56
2018-06-08T09:14:40.468Z,24.68
2018-06-08T09:17:10.003Z,24.69
2018-06-08T09:19:39.481Z,24.68
2018-06-08T09:22:09.001Z,24.81
2018-06-08T09:24:39.652Z,24.81
2018-06-08T09:27:10.200Z,25.03
2018-06-08T09:29:39.664Z,25.18
2018-06-08T09:32:09.524Z,25.27
2018-06-08T09:34:39.197Z,25.29
2018-06-08T09:37:09.431Z,25.06
2018-06-08T09:39:39.751Z,25.22
2018-06-08T09:42:10.379Z,25.32
2018-06-08T09:44:40.401Z,25.33
2018-06-08T09:47:10.072Z,25.50
2018-06-08T09:49:39.917Z,25.51
2018-06-08T09:52:09.600Z,25.49
2018-06-08T09:54:39.065Z,25.67
2018-06-08T09:57:08.891Z,25.93
2018-06-08T09:59:38.917Z,26.04
2018-06-08T10:02:08.762Z,25.96
2018-06-08T10:04:38.272Z,25.98
2018-06-08T10:07:07.887Z,25.83
2018-06-08T10:09:37.409Z,26.01
2018-06-08T10:12:06.997Z,26.17
2018-06-08T10:14:37.011Z,26.02
2018-06-08T10:17:06.491Z,26.18
2018-06-08T10:19:36.150Z,26.22
2018-06-08T10:22:05.636Z,26.16
2018-06-08T10:24:35.784Z,26.31
2018-06-08T10:27:05.240Z,26.28
2018-06-08T10:29:34.797Z,26.41
2018-06-08T10:32:04.902Z,26.40
2018-06-08T10:34:34.409Z,26.54
2018-06-08T10:37:04.044Z,26.51
2018-06-08T10:39:33.554Z,26.51
2018-06-08T10:42:03.332Z,26.37
2018-06-08T10:44:32.822Z,26.56
2018-06-08T10:47:02.286Z,26.74
2018-06-08T10:49:32.882Z,26.98
2018-06-08T10:52:02.490Z,26.96
2018-06-08T10:54:32.023Z,26.88
2018-06-08T10:57:01.422Z,27.15
2018-06-08T10:59:31.028Z,27.07
2018-06-08T11:02:00.770Z,27.10
2018-06-08T11:04:30.846Z,27.34
2018-06-08T11:07:02.486Z,27.58
2018-06-08T11:09:32.509Z,27.60
2018-06-08T11:12:01.993Z,27.67
2018-06-08T11:14:31.441Z,27.77
2018-06-08T11:17:01.067Z,27.77
2018-06-08T11:19:30.533Z,27.97
2018-06-08T11:22:00.052Z,27.74
2018-06-08T11:24:29.539Z,27.80
2018-06-08T11:26:58.994Z,27.95
2018-06-08T11:29:28.498Z,28.00
2018-06-08T11:31:57.795Z,28.15
2018-06-08T11:34:27.374Z,28.07
2018-06-08T11:36:56.829Z,27.86
2018-06-08T11:39:26.738Z,27.92
2018-06-08T11:41:56.196Z,27.88
2018-06-08T11:44:26.723Z,28.02
2018-06-08T11:46:56.292Z,28.26
2018-06-08T11:49:25.852Z,28.73
2018-06-08T11:51:55.373Z,28.85
2018-06-08T11:54:24.925Z,29.03
2018-06-08T11:56:54.648Z,29.34
2018-06-08T11:59:24.784Z,29.42
2018-06-08T12:01:54.327Z,29.35
2018-06-08T12:04:24.026Z,29.76
2018-06-08T12:06:53.620Z,29.78
2018-06-08T12:09:23.142Z,30.54
2018-06-08T12:11:52.725Z,30.57
2018-06-08T12:14:22.243Z,30.54
2018-06-08T12:16:51.747Z,30.91
2018-06-08T12:19:21.509Z,31.45
2018-06-08T12:21:51.174Z,32.00
2018-06-08T12:24:21.125Z,32.59
2018-06-08T12:26:50.720Z,34.43
2018-06-08T12:29:20.923Z,34.61
2018-06-08T12:31:50.411Z,36.54
2018-06-08T12:34:19.799Z,37.40
2018-06-08T12:36:50.163Z,37.16
2018-06-08T12:39:19.716Z,36.95
2018-06-08T12:41:49.298Z,37.87
2018-06-08T12:44:18.728Z,37.22
2018-06-08T12:46:48.793Z,37.18
2018-06-08T12:49:18.335Z,37.55
2018-06-08T12:51:48.577Z,39.02
2018-06-08T12:54:18.532Z,38.50
2018-06-08T12:56:48.021Z,38.70
2018-06-08T12:59:17.650Z,37.42
2018-06-08T13:01:47.111Z,35.28
2018-06-08T13:04:16.994Z,33.69
2018-06-08T13:06:46.559Z,33.49
2018-06-08T13:09:16.410Z,33.43
2018-06-08T13:11:45.957Z,33.99
2018-06-08T13:14:15.725Z,34.94
2018-06-08T13:16:45.149Z,34.82
2018-06-08T13:19:14.808Z,34.93
2018-06-08T13:21:44.721Z,34.34
2018-06-08T13:24:14.352Z,34.24
2018-06-08T13:26:43.761Z,34.08
2018-06-08T13:29:13.286Z,35.37
2018-06-08T13:31:42.961Z,37.80
2018-06-08T13:34:12.466Z,39.38
2018-06-08T13:36:41.948Z,39.68
2018-06-08T13:39:11.198Z,39.98
2018-06-08T13:41:40.672Z,39.09
2018-06-08T13:44:10.110Z,37.69
2018-06-08T13:46:46.821Z,36.64
2018-06-08T13:49:16.122Z,35.96
2018-06-08T13:51:45.271Z,34.48
2018-06-08T13:54:14.758Z,33.69
2018-06-08T13:56:44.316Z,33.10
2018-06-08T13:59:13.793Z,33.37
2018-06-08T14:01:43.364Z,32.96
2018-06-08T14:04:12.818Z,33.97
2018-06-08T14:06:42.282Z,35.77
2018-06-08T14:09:11.745Z,37.17
2018-06-08T14:11:41.252Z,37.56
2018-06-08T14:14:10.719Z,38.95
2018-06-08T14:16:40.326Z,40.55
2018-06-08T14:19:09.814Z,40.36
2018-06-08T14:21:39.483Z,40.02
2018-06-08T14:24:09.138Z,40.56
2018-06-08T14:26:38.685Z,41.22
2018-06-08T14:29:08.216Z,40.07
2018-06-08T14:31:37.622Z,39.58
2018-06-08T14:34:07.871Z,38.71
2018-06-08T14:36:37.288Z,38.64
2018-06-08T14:39:09.148Z,37.93
2018-06-08T14:41:38.686Z,37.86
2018-06-08T14:44:08.181Z,37.71
2018-06-08T14:46:37.786Z,37.30
2018-06-08T14:49:07.349Z,37.86
2018-06-08T14:51:36.574Z,38.22
2018-06-08T14:54:06.070Z,37.13
2018-06-08T14:56:35.610Z,36.69
2018-06-08T14:59:05.174Z,37.05
2018-06-08T15:01:34.815Z,36.62
2018-06-08T15:04:04.361Z,35.88
2018-06-08T15:06:33.981Z,35.94
2018-06-08T15:09:03.786Z,35.87
2018-06-08T15:11:33.246Z,35.24
2018-06-08T15:14:02.769Z,34.93
2018-06-08T15:16:32.266Z,34.08
2018-06-08T15:19:02.200Z,34.22
2018-06-08T15:21:31.922Z,34.65
2018-06-08T15:24:01.402Z,34.08
2018-06-08T15:26:31.637Z,33.74
2018-06-08T15:29:01.146Z,33.05
2018-06-08T15:31:30.660Z,33.08
2018-06-08T15:34:00.135Z,32.81
2018-06-08T15:36:29.680Z,32.93
2018-06-08T15:38:59.267Z,32.93
2018-06-08T15:41:29.120Z,33.22
2018-06-08T15:43:58.951Z,32.79
2018-06-08T15:46:28.241Z,32.47
2018-06-08T15:48:58.121Z,31.79
2018-06-08T15:51:27.696Z,31.80
2018-06-08T15:53:57.193Z,31.86
2018-06-08T15:56:26.836Z,31.76
2018-06-08T15:58:56.394Z,31.28
2018-06-08T16:01:25.733Z,30.76
2018-06-08T16:03:55.241Z,30.27
2018-06-08T16:06:24.913Z,30.18
2018-06-08T16:08:54.370Z,30.25
2018-06-08T16:11:24.041Z,30.08
2018-06-08T16:13:53.623Z,29.78
2018-06-08T16:16:23.102Z,29.44
2018-06-08T16:18:52.645Z,29.27
2018-06-08T16:21:22.393Z,29.13
2018-06-08T16:23:52.839Z,28.97
2018-06-08T16:26:22.433Z,28.89
2018-06-08T16:28:51.931Z,28.95
2018-06-08T16:31:21.353Z,28.78
2018-06-08T16:33:51.392Z,28.67
2018-06-08T16:36:21.855Z,28.68
2018-06-08T16:38:51.632Z,28.81
2018-06-08T16:41:22.139Z,28.39
2018-06-08T16:43:52.302Z,28.39
2018-06-08T16:46:21.709Z,28.34
2018-06-08T16:48:51.249Z,28.56
2018-06-08T16:51:21.125Z,28.85
2018-06-08T16:53:50.558Z,28.67
2018-06-08T16:56:20.065Z,28.55
2018-06-08T16:58:49.330Z,28.60
2018-06-08T17:01:18.870Z,28.45
2018-06-08T17:03:48.868Z,28.42
2018-06-08T17:06:18.617Z,28.39
2018-06-08T17:08:52.843Z,28.53
2018-06-08T17:11:22.788Z,28.33
2018-06-08T17:13:52.278Z,28.31
2018-06-08T17:16:21.809Z,28.38
2018-06-08T17:18:51.328Z,28.40
2018-06-08T17:21:20.762Z,28.25
2018-06-08T17:23:50.023Z,28.25
2018-06-08T17:26:19.501Z,28.03
2018-06-08T17:28:49.003Z,27.96
2018-06-08T17:31:18.818Z,27.93
2018-06-08T17:33:48.337Z,27.66
2018-06-08T17:36:18.070Z,27.52
2018-06-08T17:38:49.141Z,27.50
2018-06-08T17:41:18.598Z,27.39
2018-06-08T17:43:49.872Z,27.47
2018-06-08T17:46:19.378Z,27.47
2018-06-08T17:48:48.843Z,27.27
2018-06-08T17:51:19.092Z,27.25
2018-06-08T17:53:48.561Z,27.29
2018-06-08T17:56:18.140Z,27.17
2018-06-08T17:58:48.021Z,26.97
2018-06-08T18:01:17.826Z,26.85
2018-06-08T18:03:47.316Z,26.83
2018-06-08T18:06:17.235Z,26.69
2018-06-08T18:08:46.722Z,26.75
2018-06-08T18:11:16.361Z,26.67
2018-06-08T18:13:45.841Z,26.60
2018-06-08T18:16:15.259Z,26.67
2018-06-08T18:18:44.733Z,26.55
2018-06-08T18:21:13.970Z,26.37
2018-06-08T18:23:43.397Z,26.31
2018-06-08T18:26:12.895Z,26.32
2018-06-08T18:28:42.409Z,26.18
2018-06-08T18:31:11.881Z,26.15
2018-06-08T18:33:41.421Z,26.02
2018-06-08T18:36:10.920Z,25.93
2018-06-08T18:38:40.964Z,25.83
2018-06-08T18:41:10.459Z,25.80
2018-06-08T18:43:39.923Z,25.77
2018-06-08T18:46:09.450Z,25.78
2018-06-08T18:48:39.178Z,25.76
2018-06-08T18:51:08.746Z,25.69
2018-06-08T18:53:39.194Z,25.56
2018-06-08T18:56:08.794Z,25.46
2018-06-08T18:58:38.332Z,25.37
2018-06-08T19:01:07.782Z,25.36
2018-06-08T19:03:37.537Z,25.33
2018-06-08T19:06:06.970Z,25.25
2018-06-08T19:08:36.653Z,25.18
2018-06-08T19:11:06.162Z,25.12
2018-06-08T19:13:35.694Z,25.08
2018-06-08T19:16:05.512Z,25.10
2018-06-08T19:18:34.986Z,25.03
2018-06-08T19:21:04.445Z,24.94
2018-06-08T19:23:33.620Z,24.89
2018-06-08T19:26:03.114Z,24.90
2018-06-08T19:28:32.563Z,24.82
2018-06-08T19:31:02.103Z,24.85
2018-06-08T19:33:31.649Z,24.63
2018-06-08T19:36:01.174Z,24.59
2018-06-08T19:38:30.443Z,24.49
2018-06-08T19:40:59.886Z,24.49
2018-06-08T19:43:29.539Z,24.37
2018-06-08T19:45:59.007Z,24.36
2018-06-08T19:48:40.542Z,24.16
2018-06-08T19:51:09.995Z,24.21
2018-06-08T19:53:39.529Z,24.10
2018-06-08T19:56:09.024Z,24.08
2018-06-08T19:58:38.549Z,23.99
2018-06-08T20:01:08.425Z,23.97
2018-06-08T20:03:37.981Z,23.93
2018-06-08T20:06:07.588Z,23.87
2018-06-08T20:08:37.091Z,23.82
2018-06-08T20:11:06.910Z,23.74
2018-06-08T20:13:36.351Z,23.63
2018-06-08T20:16:05.625Z,23.67
2018-06-08T20:18:35.256Z,23.59
2018-06-08T20:21:04.943Z,23.53
2018-06-08T20:23:34.473Z,23.43
2018-06-08T20:26:04.130Z,23.41
2018-06-08T20:28:34.985Z,23.37
2018-06-08T20:31:11.653Z,23.38
2018-06-08T20:33:41.910Z,23.27
2018-06-08T20:36:11.682Z,23.16
2018-06-08T20:38:41.218Z,23.16
2018-06-08T20:41:10.731Z,23.18
2018-06-08T20:43:40.991Z,23.04
2018-06-08T20:46:10.557Z,22.98
2018-06-08T20:48:40.031Z,22.90
2018-06-08T20:51:09.580Z,22.81
2018-06-08T20:53:39.170Z,22.78
2018-06-08T21:01:02.237Z,22.75
2018-06-08T21:03:31.858Z,22.52
2018-06-08T21:06:01.412Z,22.52
2018-06-08T21:08:30.624Z,22.48
2018-06-08T21:11:03.838Z,22.42
2018-06-08T21:13:33.534Z,22.35
2018-06-08T21:16:02.934Z,22.35
2018-06-08T21:18:32.692Z,22.41
2018-06-08T21:21:02.806Z,22.24
2018-06-08T21:23:32.290Z,22.24
2018-06-08T21:26:02.273Z,22.12
2018-06-08T21:28:32.161Z,22.08
2018-06-08T21:31:02.267Z,22.06
2018-06-08T21:33:32.661Z,21.99
2018-06-08T21:36:01.941Z,21.92
2018-06-08T21:38:32.721Z,21.84
2018-06-08T21:41:02.238Z,21.83
2018-06-08T21:43:32.166Z,21.80
2018-06-08T21:46:01.762Z,21.78
2018-06-08T21:48:31.241Z,21.76
2018-06-08T21:51:00.806Z,21.74
2018-06-08T21:53:30.297Z,21.83
2018-06-08T21:55:59.934Z,21.73
2018-06-08T21:58:29.334Z,21.72
2018-06-08T22:00:59.505Z,21.74
2018-06-08T22:03:29.046Z,21.65
2018-06-08T22:05:58.843Z,21.61
2018-06-08T22:08:28.336Z,21.56
2018-06-08T22:11:08.529Z,21.55
2018-06-08T22:13:38.003Z,21.55
2018-06-08T22:16:07.510Z,21.45
2018-06-08T22:18:37.038Z,21.42
2018-06-08T22:21:06.470Z,21.35
2018-06-08T22:23:36.664Z,21.38
2018-06-08T22:26:06.390Z,21.31
2018-06-08T22:28:35.854Z,21.25
2018-06-08T22:31:05.522Z,21.26
2018-06-08T22:33:34.964Z,21.24
2018-06-08T22:36:04.523Z,21.22
2018-06-08T22:38:34.506Z,21.23
2018-06-08T22:41:04.549Z,21.29
2018-06-08T22:43:33.971Z,21.26
2018-06-08T22:46:03.463Z,21.08
2018-06-08T22:48:33.054Z,21.13
2018-06-08T22:51:02.570Z,21.14
2018-06-08T22:53:32.064Z,20.97
2018-06-08T22:56:01.579Z,20.97
2018-06-08T22:58:31.472Z,20.89
2018-06-08T23:01:01.304Z,20.88
2018-06-08T23:03:30.803Z,20.81
2018-06-08T23:06:00.210Z,20.57
2018-06-08T23:08:29.937Z,20.36
2018-06-08T23:10:59.449Z,20.34
2018-06-08T23:13:28.910Z,20.44
2018-06-08T23:15:58.384Z,20.40
2018-06-08T23:18:27.553Z,20.32
2018-06-08T23:20:57.477Z,20.31
2018-06-08T23:23:27.196Z,20.41
2018-06-08T23:25:56.729Z,20.25
2018-06-08T23:28:25.957Z,20.20
2018-06-08T23:30:55.404Z,20.19
2018-06-08T23:33:25.722Z,20.16
2018-06-08T23:35:55.357Z,20.23
2018-06-08T23:38:24.793Z,20.16
2018-06-08T23:40:54.438Z,20.12
2018-06-08T23:43:23.935Z,20.11
2018-06-08T23:45:53.341Z,20.13
2018-06-08T23:48:22.868Z,20.14
2018-06-08T23:50:52.344Z,20.05
2018-06-08T23:53:21.812Z,19.88
2018-06-08T23:55:51.715Z,19.82
2018-06-08T23:58:20.992Z,19.64
